createdAt,value
2018-03-15T00:01:43.096Z,11.10
2018-03-15T00:04:15.086Z,14.23
2018-03-15T00:06:50.390Z,12.27
2018-03-15T00:09:25.026Z,11.15
2018-03-15T00:11:57.726Z,14.95
2018-03-15T00:14:43.176Z,13.75
2018-03-15T00:17:17.597Z,13.00
2018-03-15T00:19:52.456Z,9.38
2018-03-15T00:22:23.986Z,9.50
2018-03-15T00:25:00.137Z,10.88
2018-03-15T00:27:34.055Z,8.57
2018-03-15T00:30:06.385Z,10.20
2018-03-15T00:32:38.887Z,9.00
2018-03-15T00:35:17.505Z,8.65
2018-03-15T00:37:51.316Z,25.65
2018-03-15T00:40:25.317Z,8.80
2018-03-15T00:42:57.695Z,6.62
2018-03-15T00:45:31.805Z,6.53
2018-03-15T00:48:07.046Z,6.50
2018-03-15T00:50:39.115Z,7.32
2018-03-15T00:53:15.265Z,8.95
2018-03-15T00:55:48.256Z,11.12
2018-03-15T00:58:22.576Z,10.90
2018-03-15T01:00:54.946Z,7.70
2018-03-15T01:03:26.805Z,7.05
2018-03-15T01:06:00.705Z,8.50
2018-03-15T01:08:32.585Z,14.13
2018-03-15T01:11:04.644Z,10.38
2018-03-15T01:13:41.926Z,9.10
2018-03-15T01:16:13.826Z,10.32
2018-03-15T01:18:46.046Z,7.85
2018-03-15T01:21:17.295Z,8.75
2018-03-15T01:23:49.155Z,9.20
2018-03-15T01:26:19.986Z,8.15
2018-03-15T01:28:51.535Z,8.07
2018-03-15T01:31:29.945Z,8.98
2018-03-15T01:34:03.755Z,9.95
2018-03-15T01:36:44.946Z,6.95
2018-03-15T01:39:16.374Z,6.37
2018-03-15T01:41:48.665Z,6.12
2018-03-15T01:44:20.656Z,5.37
2018-03-15T01:46:52.575Z,5.82
2018-03-15T01:49:27.006Z,7.00
2018-03-15T01:51:59.375Z,7.25
2018-03-15T01:54:32.045Z,6.30
2018-03-15T01:57:05.347Z,5.03
2018-03-15T01:59:37.115Z,8.43
2018-03-15T02:02:12.428Z,6.40
2018-03-15T02:04:53.725Z,7.15
2018-03-15T02:07:25.786Z,8.70
2018-03-15T02:10:02.867Z,6.90
2018-03-15T02:12:37.216Z,6.68
2018-03-15T02:15:09.457Z,8.95
2018-03-15T02:17:40.935Z,8.20
2018-03-15T02:20:11.855Z,6.75
2018-03-15T02:22:46.875Z,9.63
2018-03-15T02:25:20.575Z,7.20
2018-03-15T02:27:55.366Z,8.27
2018-03-15T02:30:34.726Z,7.70
2018-03-15T02:33:15.307Z,7.97
2018-03-15T02:35:48.095Z,9.52
2018-03-15T02:38:22.816Z,7.32
2018-03-15T02:41:04.385Z,7.57
2018-03-15T02:43:35.746Z,7.70
2018-03-15T02:46:16.356Z,5.82
2018-03-15T02:48:48.486Z,6.30
2018-03-15T02:51:19.928Z,6.10
2018-03-15T02:54:00.016Z,6.25
2018-03-15T02:56:34.097Z,7.93
2018-03-15T02:59:09.536Z,7.37
2018-03-15T03:01:50.940Z,5.95
2018-03-15T03:04:25.335Z,5.43
2018-03-15T03:07:03.386Z,7.25
2018-03-15T03:09:36.735Z,6.93
2018-03-15T03:12:08.905Z,9.68
2018-03-15T03:14:44.137Z,5.87
2018-03-15T03:17:14.976Z,4.90
2018-03-15T03:19:49.316Z,5.97
2018-03-15T03:22:21.447Z,4.80
2018-03-15T03:24:52.907Z,6.47
2018-03-15T03:27:26.436Z,5.25
2018-03-15T03:30:10.336Z,7.28
2018-03-15T03:32:42.006Z,12.13
2018-03-15T03:35:16.745Z,23.92
2018-03-15T03:37:57.366Z,6.97
2018-03-15T03:40:29.975Z,5.05
2018-03-15T03:43:03.071Z,4.93
2018-03-15T03:45:35.411Z,5.90
2018-03-15T03:48:06.066Z,5.25
2018-03-15T03:50:37.106Z,4.75
2018-03-15T03:53:08.964Z,14.35
2018-03-15T03:55:41.035Z,6.25
2018-03-15T03:58:13.305Z,4.85
2018-03-15T04:00:44.895Z,5.20
2018-03-15T04:03:16.605Z,5.65
2018-03-15T04:05:52.155Z,5.97
2018-03-15T04:08:28.205Z,7.32
2018-03-15T04:10:59.765Z,5.65
2018-03-15T04:13:35.006Z,6.10
2018-03-15T04:16:05.945Z,6.35
2018-03-15T04:18:39.935Z,4.90
2018-03-15T04:21:14.055Z,5.30
2018-03-15T04:23:46.125Z,6.28
2018-03-15T04:26:22.075Z,5.57
2018-03-15T04:28:54.407Z,7.68
2018-03-15T04:31:29.276Z,6.75
2018-03-15T04:34:02.476Z,5.62
2018-03-15T04:36:34.026Z,7.18
2018-03-15T04:39:07.055Z,6.07
2018-03-15T04:41:42.425Z,6.07
2018-03-15T04:44:18.105Z,5.87
2018-03-15T04:46:52.626Z,6.62
2018-03-15T04:49:24.415Z,5.85
2018-03-15T04:51:56.955Z,5.80
2018-03-15T04:54:28.535Z,19.45
2018-03-15T04:57:03.746Z,9.68
2018-03-15T04:59:35.706Z,6.75
2018-03-15T05:02:09.506Z,6.62
2018-03-15T05:04:45.365Z,7.18
2018-03-15T05:07:24.486Z,6.07
2018-03-15T05:09:59.025Z,12.00
2018-03-15T05:12:35.186Z,6.70
2018-03-15T05:15:07.346Z,11.65
2018-03-15T05:17:42.076Z,9.05
2018-03-15T05:20:13.925Z,8.02
2018-03-15T05:22:46.094Z,9.80
2018-03-15T05:25:18.811Z,9.65
2018-03-15T05:27:50.326Z,10.95
2018-03-15T05:30:22.116Z,13.10
2018-03-15T05:32:54.554Z,11.43
2018-03-15T05:35:26.616Z,10.13
2018-03-15T05:38:07.085Z,11.27
2018-03-15T05:40:39.055Z,12.60
2018-03-15T05:43:12.786Z,11.35
2018-03-15T05:45:44.616Z,9.25
2018-03-15T05:48:18.385Z,9.48
2018-03-15T05:50:50.748Z,8.02
2018-03-15T05:53:24.088Z,9.98
2018-03-15T05:55:58.506Z,9.30
2018-03-15T05:58:33.946Z,13.62
2018-03-15T06:01:05.497Z,10.48
2018-03-15T06:03:37.855Z,11.35
2018-03-15T06:06:09.826Z,9.52
2018-03-15T06:08:43.225Z,12.55
2018-03-15T06:11:14.675Z,11.12
2018-03-15T06:13:46.228Z,10.55
2018-03-15T06:16:16.956Z,10.27
2018-03-15T06:18:48.514Z,11.15
2018-03-15T06:21:22.724Z,9.15
2018-03-15T06:23:55.196Z,10.50
2018-03-15T06:26:29.315Z,8.02
2018-03-15T06:29:01.195Z,10.50
2018-03-15T06:31:39.584Z,9.70
2018-03-15T06:34:13.946Z,11.70
2018-03-15T06:36:48.936Z,16.45
2018-03-15T06:39:23.855Z,15.43
2018-03-15T06:41:55.939Z,16.62
2018-03-15T06:44:28.505Z,10.13
2018-03-15T06:47:00.168Z,10.65
2018-03-15T06:49:40.346Z,10.10
2018-03-15T06:52:13.041Z,11.77
2018-03-15T06:54:46.396Z,10.65
2018-03-15T06:57:17.056Z,11.63
2018-03-15T06:59:52.056Z,10.18
2018-03-15T07:02:27.186Z,8.82
2018-03-15T07:05:01.536Z,14.63
2018-03-15T07:07:33.675Z,15.95
2018-03-15T07:10:06.052Z,12.25
2018-03-15T07:12:39.036Z,10.57
2018-03-15T07:15:14.265Z,9.68
2018-03-15T07:17:46.326Z,10.88
2018-03-15T07:20:24.398Z,13.82
2018-03-15T07:23:01.525Z,9.32
2018-03-15T07:25:33.174Z,17.70
2018-03-15T07:28:04.316Z,15.15
2018-03-15T07:30:37.095Z,10.38
2018-03-15T07:33:08.266Z,13.55
2018-03-15T07:35:43.997Z,12.45
2018-03-15T07:38:20.148Z,10.52
2018-03-15T07:40:59.397Z,6.22
2018-03-15T07:43:38.514Z,31.33
2018-03-15T07:46:09.794Z,12.13
2018-03-15T07:48:44.163Z,15.68
2018-03-15T07:51:16.234Z,4.93
2018-03-15T07:53:46.792Z,9.05
2018-03-15T07:56:18.712Z,10.80
2018-03-15T07:58:49.853Z,7.95
2018-03-15T08:01:22.348Z,10.27
2018-03-15T08:03:54.511Z,27.13
2018-03-15T08:06:26.682Z,10.63
2018-03-15T08:08:58.841Z,6.95
2018-03-15T08:11:29.421Z,8.63
2018-03-15T08:14:01.634Z,8.60
2018-03-15T08:16:34.535Z,10.05
2018-03-15T08:19:06.397Z,15.40
2018-03-15T08:21:37.323Z,9.32
2018-03-15T08:24:09.905Z,12.68
2018-03-15T08:26:41.253Z,8.48
2018-03-15T08:29:18.232Z,13.85
2018-03-15T08:31:47.629Z,12.60
2018-03-15T08:34:19.314Z,9.23
2018-03-15T08:36:50.424Z,12.48
2018-03-15T08:39:22.372Z,7.70
2018-03-15T08:41:53.795Z,9.48
2018-03-15T08:44:26.614Z,20.42
2018-03-15T08:47:04.355Z,12.05
2018-03-15T08:49:39.755Z,10.35
2018-03-15T08:52:12.064Z,10.18
2018-03-15T08:54:46.409Z,9.00
2018-03-15T08:57:18.139Z,13.52
2018-03-15T08:59:50.208Z,10.38
2018-03-15T09:02:24.707Z,13.98
2018-03-15T09:04:59.993Z,8.40
2018-03-15T09:07:34.076Z,8.85
2018-03-15T09:10:05.426Z,8.70
2018-03-15T09:12:38.280Z,10.45
2018-03-15T09:15:13.646Z,7.97
2018-03-15T09:17:50.727Z,10.63
2018-03-15T09:20:22.077Z,9.98
2018-03-15T09:22:53.695Z,12.27
2018-03-15T09:25:24.727Z,13.32
2018-03-15T09:27:57.310Z,12.23
2018-03-15T09:30:34.706Z,12.73
2018-03-15T09:33:06.145Z,12.27
2018-03-15T09:35:38.517Z,12.88
2018-03-15T09:38:16.106Z,13.57
2018-03-15T09:40:49.214Z,12.10
2018-03-15T09:43:23.369Z,12.15
2018-03-15T09:45:56.397Z,14.15
2018-03-15T09:48:28.409Z,10.70
2018-03-15T09:51:00.985Z,13.55
2018-03-15T09:53:33.255Z,10.02
2018-03-15T09:56:07.416Z,24.12
2018-03-15T09:58:39.695Z,9.77
2018-03-15T10:01:14.655Z,9.98
2018-03-15T10:03:46.685Z,12.45
2018-03-15T10:06:18.076Z,8.20
2018-03-15T10:08:51.945Z,8.32
2018-03-15T10:11:22.456Z,8.85
2018-03-15T10:13:57.105Z,6.80
2018-03-15T10:16:28.647Z,7.62
2018-03-15T10:19:03.267Z,13.85
2018-03-15T10:21:35.275Z,8.32
2018-03-15T10:24:07.297Z,14.10
2018-03-15T10:26:38.274Z,11.40
2018-03-15T10:29:11.636Z,12.13
2018-03-15T10:31:42.875Z,21.85
2018-03-15T10:34:15.818Z,15.30
2018-03-15T10:36:47.345Z,15.30
2018-03-15T10:39:18.675Z,12.85
2018-03-15T10:41:50.824Z,17.73
2018-03-15T10:44:22.445Z,16.33
2018-03-15T10:46:55.305Z,17.80
2018-03-15T10:49:26.822Z,16.70
2018-03-15T10:51:59.086Z,16.10
2018-03-15T10:54:31.436Z,15.60
2018-03-15T10:57:02.715Z,16.35
2018-03-15T10:59:34.596Z,16.30
2018-03-15T11:02:06.923Z,20.40
2018-03-15T11:04:44.756Z,15.10
2018-03-15T11:07:21.297Z,17.15
2018-03-15T11:09:54.286Z,18.83
2018-03-15T11:12:26.654Z,15.65
2018-03-15T11:14:58.717Z,22.05
2018-03-15T11:17:30.006Z,19.12
2018-03-15T11:20:01.736Z,21.52
2018-03-15T11:22:33.585Z,14.95
2018-03-15T11:25:04.926Z,18.42
2018-03-15T11:27:40.876Z,15.43
2018-03-15T11:30:12.650Z,16.62
2018-03-15T11:32:45.016Z,19.05
2018-03-15T11:35:17.276Z,15.10
2018-03-15T11:37:49.085Z,15.50
2018-03-15T11:40:21.415Z,15.10
2018-03-15T11:42:52.768Z,17.92
2018-03-15T11:45:24.625Z,23.67
2018-03-15T11:47:56.786Z,15.20
2018-03-15T11:50:29.556Z,19.23
2018-03-15T11:53:05.225Z,19.92
2018-03-15T11:55:49.546Z,51.90
2018-03-15T11:58:22.245Z,18.40
2018-03-15T12:00:53.807Z,18.00
2018-03-15T12:03:25.975Z,18.25
2018-03-15T12:06:00.805Z,18.25
2018-03-15T12:08:33.877Z,18.12
2018-03-15T12:11:11.896Z,19.15
2018-03-15T12:13:44.095Z,15.95
2018-03-15T12:16:16.837Z,15.82
2018-03-15T12:18:58.446Z,16.35
2018-03-15T12:21:33.655Z,19.58
2018-03-15T12:24:07.677Z,16.75
2018-03-15T12:26:38.754Z,16.00
2018-03-15T12:29:10.575Z,15.95
2018-03-15T12:31:50.436Z,15.63
2018-03-15T12:34:23.625Z,16.20
2018-03-15T12:36:56.086Z,19.77
2018-03-15T12:39:28.167Z,19.33
2018-03-15T12:42:02.456Z,19.50
2018-03-15T12:44:34.225Z,18.98
2018-03-15T12:47:05.615Z,18.95
2018-03-15T12:49:37.455Z,18.10
2018-03-15T12:52:09.807Z,17.15
2018-03-15T12:54:45.767Z,21.70
2018-03-15T12:57:22.382Z,28.27
2018-03-15T12:59:55.414Z,22.60
2018-03-15T13:02:30.775Z,18.77
2018-03-15T13:05:08.866Z,17.87
2018-03-15T13:07:42.775Z,17.80
2018-03-15T13:10:21.204Z,26.87
2018-03-15T13:12:53.856Z,24.27
2018-03-15T13:15:24.946Z,21.83
2018-03-15T13:17:57.278Z,15.55
2018-03-15T13:20:29.125Z,19.87
2018-03-15T13:23:11.050Z,20.58
2018-03-15T13:25:50.061Z,18.85
2018-03-15T13:28:23.545Z,23.60
2018-03-15T13:30:58.387Z,24.60
2018-03-15T13:33:35.576Z,28.23
2018-03-15T13:36:11.635Z,19.87
2018-03-15T13:38:43.805Z,9.10
2018-03-15T13:41:15.074Z,13.80
2018-03-15T13:43:47.801Z,13.30
2018-03-15T13:46:19.214Z,14.73
2018-03-15T13:48:55.635Z,14.05
2018-03-15T13:51:26.915Z,13.18
2018-03-15T13:53:59.074Z,14.32
2018-03-15T13:56:30.805Z,13.13
2018-03-15T13:59:05.015Z,21.77
2018-03-15T14:01:36.676Z,19.00
2018-03-15T14:04:09.340Z,13.30
2018-03-15T14:06:41.626Z,10.23
2018-03-15T14:09:16.455Z,13.62
2018-03-15T14:11:48.855Z,11.38
2018-03-15T14:14:22.825Z,10.60
2018-03-15T14:16:54.624Z,12.82
2018-03-15T14:19:26.243Z,11.43
2018-03-15T14:21:58.085Z,15.60
2018-03-15T14:24:33.956Z,10.00
2018-03-15T14:27:09.606Z,10.80
2018-03-15T14:29:42.688Z,10.27
2018-03-15T14:32:13.800Z,13.35
2018-03-15T14:34:46.036Z,14.85
2018-03-15T14:37:18.185Z,14.30
2018-03-15T14:39:51.916Z,12.57
2018-03-15T14:42:31.945Z,12.80
2018-03-15T14:45:08.296Z,12.93
2018-03-15T14:47:47.935Z,16.67
2018-03-15T14:50:20.613Z,13.73
2018-03-15T14:52:51.705Z,10.93
2018-03-15T14:55:21.976Z,20.98
2018-03-15T14:57:55.106Z,12.10
2018-03-15T15:00:26.956Z,13.13
2018-03-15T15:02:57.755Z,13.73
2018-03-15T15:05:33.915Z,11.88
2018-03-15T15:08:06.935Z,17.83
2018-03-15T15:10:37.975Z,14.45
2018-03-15T15:13:09.000Z,11.88
2018-03-15T15:15:42.166Z,10.98
2018-03-15T15:18:14.904Z,14.87
2018-03-15T15:20:47.188Z,13.55
2018-03-15T15:23:19.425Z,13.82
2018-03-15T15:25:51.656Z,15.07
2018-03-15T15:28:32.126Z,18.35
2018-03-15T15:31:08.295Z,17.77
2018-03-15T15:33:39.627Z,16.00
2018-03-15T15:36:17.475Z,18.00
2018-03-15T15:38:55.637Z,16.00
2018-03-15T15:41:28.213Z,17.10
2018-03-15T15:43:59.617Z,16.60
2018-03-15T15:46:35.005Z,17.30
2018-03-15T15:49:05.526Z,18.10
2018-03-15T15:51:38.625Z,22.62
2018-03-15T15:54:10.285Z,16.48
2018-03-15T15:56:46.025Z,19.52
2018-03-15T15:59:23.106Z,17.15
2018-03-15T16:01:56.406Z,16.67
2018-03-15T16:04:28.875Z,21.83
2018-03-15T16:07:00.486Z,16.73
2018-03-15T16:09:33.848Z,18.67
2018-03-15T16:12:05.915Z,19.45
2018-03-15T16:14:41.834Z,16.27
2018-03-15T16:17:13.905Z,14.77
2018-03-15T16:19:49.355Z,7.87
2018-03-15T16:22:21.346Z,16.87
2018-03-15T16:24:59.326Z,6.50
2018-03-15T16:27:31.496Z,5.78
2018-03-15T16:30:02.516Z,10.60
2018-03-15T16:32:35.715Z,4.50
2018-03-15T16:35:10.336Z,8.35
2018-03-15T16:37:42.496Z,4.18
2018-03-15T16:40:15.286Z,6.90
2018-03-15T16:42:46.667Z,4.93
2018-03-15T16:45:19.494Z,3.60
2018-03-15T16:47:57.215Z,6.97
2018-03-15T16:50:30.914Z,9.73
2018-03-15T16:53:01.744Z,5.72
2018-03-15T16:55:34.035Z,7.07
2018-03-15T16:58:06.595Z,7.25
2018-03-15T17:00:38.466Z,4.25
2018-03-15T17:03:09.594Z,6.32
2018-03-15T17:05:47.943Z,10.55
2018-03-15T17:08:24.068Z,14.60
2018-03-15T17:11:00.425Z,14.80
2018-03-15T17:13:30.508Z,12.05
2018-03-15T17:16:02.245Z,13.25
2018-03-15T17:18:38.486Z,12.23
2018-03-15T17:21:14.036Z,17.15
2018-03-15T17:23:46.795Z,14.02
2018-03-15T17:26:19.788Z,13.73
2018-03-15T17:28:55.026Z,19.50
2018-03-15T17:31:30.575Z,14.43
2018-03-15T17:34:06.116Z,16.52
2018-03-15T17:36:38.017Z,18.92
2018-03-15T17:39:09.775Z,13.57
2018-03-15T17:41:44.055Z,22.00
2018-03-15T17:44:16.945Z,15.98
2018-03-15T17:46:47.875Z,19.00
2018-03-15T17:49:26.285Z,15.48
2018-03-15T17:52:00.905Z,19.35
2018-03-15T17:54:35.025Z,20.55
2018-03-15T17:57:06.767Z,19.58
2018-03-15T17:59:38.548Z,22.42
2018-03-15T18:02:11.448Z,22.42
2018-03-15T18:04:43.365Z,17.92
2018-03-15T18:07:15.903Z,19.45
2018-03-15T18:09:50.985Z,17.92
2018-03-15T18:12:21.816Z,16.35
2018-03-15T18:14:55.856Z,17.37
2018-03-15T18:17:27.125Z,13.98
2018-03-15T18:19:59.485Z,16.27
2018-03-15T18:22:31.225Z,16.35
2018-03-15T18:25:05.316Z,16.90
2018-03-15T18:27:39.145Z,16.50
2018-03-15T18:30:13.137Z,17.25
2018-03-15T18:32:45.106Z,16.25
2018-03-15T18:35:17.066Z,16.17
2018-03-15T18:37:48.300Z,18.37
2018-03-15T18:40:22.256Z,22.77
2018-03-15T18:42:55.589Z,21.23
2018-03-15T18:45:26.735Z,16.65
2018-03-15T18:47:59.135Z,16.08
2018-03-15T18:50:31.939Z,18.42
2018-03-15T18:53:04.165Z,17.87
2018-03-15T18:55:35.415Z,16.42
2018-03-15T18:58:08.585Z,17.45
2018-03-15T19:00:40.085Z,16.15
2018-03-15T19:03:12.255Z,15.05
2018-03-15T19:05:44.416Z,17.62
2018-03-15T19:08:15.026Z,17.23
2018-03-15T19:10:46.886Z,19.87
2018-03-15T19:13:19.496Z,16.80
2018-03-15T19:15:51.768Z,16.85
2018-03-15T19:18:24.236Z,23.27
2018-03-15T19:20:58.145Z,18.15
2018-03-15T19:23:30.164Z,16.80
2018-03-15T19:26:01.014Z,14.87
2018-03-15T19:28:33.475Z,16.30
2018-03-15T19:31:05.528Z,14.57
2018-03-15T19:33:36.285Z,14.87
2018-03-15T19:36:07.727Z,14.55
2018-03-15T19:38:39.185Z,13.23
2018-03-15T19:41:12.896Z,17.37
2018-03-15T19:43:43.915Z,15.65
2018-03-15T19:46:15.056Z,16.52
2018-03-15T19:48:47.366Z,13.65
2018-03-15T19:51:19.225Z,14.48
2018-03-15T19:53:50.735Z,16.62
2018-03-15T19:56:23.005Z,13.98
2018-03-15T19:58:54.805Z,15.27
2018-03-15T20:01:30.755Z,16.33
2018-03-15T20:04:02.375Z,13.62
2018-03-15T20:06:34.176Z,14.32
2018-03-15T20:09:06.136Z,16.83
2018-03-15T20:11:45.135Z,15.68
2018-03-15T20:14:19.235Z,15.80
2018-03-15T20:16:51.705Z,17.40
2018-03-15T20:19:23.617Z,13.05
2018-03-15T20:21:55.775Z,9.88
2018-03-15T20:24:32.149Z,11.98
2018-03-15T20:27:03.757Z,10.30
2018-03-15T20:29:34.695Z,8.23
2018-03-15T20:32:06.526Z,7.70
2018-03-15T20:34:38.307Z,8.93
2018-03-15T20:37:09.655Z,9.27
2018-03-15T20:39:47.056Z,6.22
2018-03-15T20:42:17.205Z,7.10
2018-03-15T20:44:50.566Z,9.70
2018-03-15T20:47:29.178Z,6.70
2018-03-15T20:50:03.945Z,6.07
2018-03-15T20:52:43.536Z,5.30
2018-03-15T20:55:15.095Z,4.93
2018-03-15T20:57:48.015Z,5.03
2018-03-15T21:00:19.846Z,4.55
2018-03-15T21:02:51.857Z,4.25
2018-03-15T21:05:23.453Z,4.80
2018-03-15T21:07:58.525Z,3.90
2018-03-15T21:10:33.116Z,5.20
2018-03-15T21:13:04.366Z,4.18
2018-03-15T21:15:34.895Z,4.03
2018-03-15T21:18:06.076Z,3.28
2018-03-15T21:20:38.347Z,5.70
2018-03-15T21:23:12.825Z,7.50
2018-03-15T21:25:45.416Z,8.85
2018-03-15T21:28:16.677Z,3.75
2018-03-15T21:30:48.596Z,3.60
2018-03-15T21:33:20.156Z,3.30
2018-03-15T21:35:56.216Z,4.95
2018-03-15T21:38:27.159Z,5.32
2018-03-15T21:40:59.425Z,3.75
2018-03-15T21:43:36.207Z,4.25
2018-03-15T21:46:10.586Z,4.45
2018-03-15T21:48:45.755Z,4.57
2018-03-15T21:51:18.746Z,2.90
2018-03-15T21:53:49.985Z,4.18
2018-03-15T21:56:21.676Z,7.22
2018-03-15T21:58:53.196Z,2.87
2018-03-15T22:01:25.055Z,2.78
2018-03-15T22:03:57.875Z,3.08
2018-03-15T22:06:30.246Z,2.40
2018-03-15T22:09:02.069Z,2.70
2018-03-15T22:11:37.547Z,3.10
2018-03-15T22:14:14.425Z,3.28
2018-03-15T22:16:45.228Z,3.35
2018-03-15T22:19:17.336Z,2.00
2018-03-15T22:21:51.717Z,2.72
2018-03-15T22:24:29.508Z,2.20
2018-03-15T22:27:01.267Z,3.37
2018-03-15T22:29:32.920Z,2.28
2018-03-15T22:32:06.206Z,1.90
2018-03-15T22:34:38.675Z,2.40
2018-03-15T22:37:11.472Z,2.30
2018-03-15T22:39:45.067Z,2.10
2018-03-15T22:42:16.506Z,2.40
2018-03-15T22:44:47.035Z,2.40
2018-03-15T22:47:21.275Z,2.45
2018-03-15T22:49:54.856Z,2.30
2018-03-15T22:52:30.844Z,3.30
2018-03-15T22:55:02.293Z,4.85
2018-03-15T22:57:36.496Z,2.65
2018-03-15T23:00:08.948Z,5.30
2018-03-15T23:02:40.246Z,2.30
2018-03-15T23:05:12.875Z,2.35
2018-03-15T23:07:46.066Z,2.33
2018-03-15T23:10:19.566Z,2.00
2018-03-15T23:12:52.135Z,3.37
2018-03-15T23:15:24.315Z,2.15
2018-03-15T23:17:55.664Z,4.20
2018-03-15T23:20:27.110Z,4.25
2018-03-15T23:23:04.606Z,1.90
2018-03-15T23:25:35.743Z,2.25
2018-03-15T23:28:07.095Z,3.00
2018-03-15T23:30:40.686Z,2.30
2018-03-15T23:33:11.615Z,2.33
2018-03-15T23:35:46.079Z,1.70
2018-03-15T23:38:17.495Z,2.60
2018-03-15T23:40:51.845Z,3.25
2018-03-15T23:43:23.155Z,1.60
2018-03-15T23:45:54.575Z,1.77
2018-03-15T23:48:26.975Z,1.83
2018-03-15T23:51:00.005Z,2.92
2018-03-15T23:53:31.316Z,3.50
2018-03-15T23:56:05.736Z,1.73
2018-03-15T23:58:37.536Z,1.65
